Latest Coastal Weather Observations for Rosslyn Bay Harbour

IDQ60701

Issued at 8:21 pm EST Tuesday 27 January 2015 (issued every 10 minutes, with the page automatically refreshed every 10 minutes)

About coastal observations | Map of coastal stations | Coastal observations for QLD | Marine services | Other Formats
Station Details ID: 033208 Name: ROSSLYN BAY NTC AWS Lat: -23.16 Lon: 150.79 Height: 0.0 m
Data from the previous 72 hours. | See also: Recent months for locations in Queensland
Date/Time
EST
Temp

°C
Wind Pressure Rain
since 9am
mm
Weather Cloud Vis
km
Sea
Height
m
Swell
Dir
 
Speed
knots
Gust
knots
hPa Trend Height
m
Period
s
Dir
27/08:00pm 27.7 SSW 6 19 1003.7 - - - - - - - - -
27/07:30pm 27.7 SSW 6 12 1003.3 - - - - - - - - -
27/07:00pm 28.0 S 10 15 1002.8 - - - - - - - - -
27/06:30pm 28.0 S 9 16 1002.4 - - - - - - - - -
27/06:00pm 27.1 S 6 12 1002.2 - - - - - - - - -
27/05:30pm 26.7 SSW 7 15 1001.8 - - - - - - - - -
27/05:00pm 28.2 S 11 18 1001.1 - - - - - - - - -
27/04:30pm 28.5 S 8 14 1001.4 - - - - - - - - -
27/04:00pm 28.6 S 9 15 1001.5 - - - - - - - - -
27/03:30pm 28.9 S 8 13 1001.5 - - - - - - - - -
27/03:00pm 29.3 WSW 4 9 1001.8 - - - - - - - - -
27/02:30pm 28.9 S 4 10 1001.9 - - - - - - - - -
27/02:00pm 29.1 S 8 13 1002.2 - - - - - - - - -
27/01:30pm 29.1 S 8 12 1002.4 - - - - - - - - -
27/01:00pm 29.4 S 6 11 1002.9 - - - - - - - - -
27/12:30pm 28.9 S 10 14 1003.1 - - - - - - - - -
27/12:00pm 28.8 S 10 15 1003.7 - - - - - - - - -
27/11:30am 28.8 S 10 15 1003.9 - - - - - - - - -
27/11:00am 28.5 S 8 12 1004.1 - - - - - - - - -
27/10:30am 28.6 S 9 13 1004.4 - - - - - - - - -
27/10:00am 28.5 S 10 15 1004.5 - - - - - - - - -
27/09:30am 28.5 S 7 13 1004.4 - - - - - - - - -
27/09:00am 28.5 S 6 11 1004.5 - - - - - - - - -
27/08:30am 28.3 S 6 10 1004.4 - - - - - - - - -
27/08:00am 28.1 S 7 13 1004.5 - - - - - - - - -
27/07:30am 27.7 SSW 4 10 1004.3 - - - - - - - - -
27/07:00am 27.6 S 7 12 1003.9 - - - - - - - - -
27/06:30am 27.4 SSW 5 10 1003.7 - - - - - - - - -
27/06:00am 27.1 SSW 6 16 1003.6 - - - - - - - - -
27/05:30am 26.5 S 9 17 1003.3 - - - - - - - - -
27/05:00am 27.4 S 8 14 1003.2 - - - - - - - - -
27/04:30am 27.9 SSW 3 7 1003.1 - - - - - - - - -
27/04:00am 27.9 SSW 4 8 1003.0 - - - - - - - - -
27/03:30am 28.1 S 4 8 1003.2 - - - - - - - - -
27/03:00am 28.3 S 4 7 1003.0 - - - - - - - - -
27/02:30am 28.3 S 6 10 1003.0 - - - - - - - - -
27/02:00am 28.6 SW 3 6 1002.7 - - - - - - - - -
27/01:30am 28.5 WSW 3 7 1002.9 - - - - - - - - -
27/01:00am 28.4 WSW 4 9 1003.3 - - - - - - - - -
27/12:00am 25.1 S 2 3 1003.9 - - - - - - - - -
 
Date/Time
EST
Temp

°C
Wind Pressure Rain
since 9am
mm
Weather Cloud Vis
km
Sea
Height
m
Swell
Dir
 
Speed
knots
Gust
knots
hPa Trend Height
m
Period
s
Dir
26/11:30pm 25.4 NNW 4 5 1005.2 - - - - - - - - -
26/11:00pm 25.2 W 5 7 1005.7 - - - - - - - - -
26/10:30pm 29.1 SE 4 11 1004.7 - - - - - - - - -
26/10:00pm 29.3 ENE 3 7 1004.7 - - - - - - - - -
26/09:30pm 29.2 ENE 4 9 1004.6 - - - - - - - - -
26/09:00pm 29.2 NE 9 11 1004.2 - - - - - - - - -
26/08:30pm 29.3 ENE 6 10 1004.0 - - - - - - - - -
26/08:00pm 29.3 ENE 6 11 1004.0 - - - - - - - - -
26/07:30pm 29.4 ENE 7 12 1004.0 - - - - - - - - -
26/07:00pm 29.3 NE 9 11 1003.6 - - - - - - - - -
26/06:30pm 29.4 NE 8 11 1003.5 - - - - - - - - -
26/06:00pm 29.5 NE 7 11 1003.1 - - - - - - - - -
26/05:30pm 29.5 NE 8 11 1002.7 - - - - - - - - -
26/05:00pm 29.6 ENE 9 12 1002.6 - - - - - - - - -
26/04:30pm 29.7 NE 3 10 1002.7 - - - - - - - - -
26/04:00pm 29.7 ENE 6 11 1002.5 - - - - - - - - -
26/03:30pm 30.1 E 3 9 1003.0 - - - - - - - - -
26/03:00pm 29.6 NE 8 13 1002.5 - - - - - - - - -
26/02:30pm 30.4 ENE 9 12 1002.9 - - - - - - - - -
26/02:00pm 29.6 NE 7 9 1003.0 - - - - - - - - -
26/01:30pm 29.7 ENE 6 8 1003.2 - - - - - - - - -
26/01:00pm 30.3 SSW 2 6 1003.2 - - - - - - - - -
26/12:30pm 29.7 S 4 8 1003.7 - - - - - - - - -
26/12:00pm 29.3 S 6 9 1004.0 - - - - - - - - -
26/11:30am 29.2 S 3 7 1004.3 - - - - - - - - -
26/11:00am 28.7 S 7 9 1004.5 - - - - - - - - -
26/10:30am 28.9 S 6 9 1004.8 - - - - - - - - -
26/10:00am 28.4 S 6 9 1005.1 - - - - - - - - -
26/09:30am 28.1 S 6 8 1005.1 - - - - - - - - -
26/09:00am 28.1 S 5 9 1005.3 - - - - - - - - -
26/08:30am 27.8 S 5 8 1005.6 - - - - - - - - -
26/08:00am 27.5 S 6 10 1005.6 - - - - - - - - -
26/07:30am 27.6 S 6 8 1005.5 - - - - - - - - -
26/07:00am 28.4 NW 1 3 1005.4 - - - - - - - - -
26/06:30am 27.4 S 3 5 1005.4 - - - - - - - - -
26/06:00am 28.2 NNW 4 6 1004.8 - - - - - - - - -
26/05:30am 28.3 N 5 7 1004.6 - - - - - - - - -
26/05:00am 28.5 NNE 8 11 1004.3 - - - - - - - - -
26/04:30am 28.5 NNE 7 9 1004.2 - - - - - - - - -
26/04:00am 28.5 NE 9 13 1004.2 - - - - - - - - -
26/03:30am 28.4 NE 8 12 1004.0 - - - - - - - - -
26/03:00am 28.8 ENE 10 16 1003.7 - - - - - - - - -
26/02:30am 28.4 WSW 3 11 1003.9 - - - - - - - - -
26/02:00am 28.3 SSW 3 7 1004.4 - - - - - - - - -
26/01:30am 28.3 S 5 10 1004.1 - - - - - - - - -
26/01:00am 28.8 S 5 9 1004.3 - - - - - - - - -
26/12:30am 28.2 S 2 5 1004.6 - - - - - - - - -
26/12:00am 27.8 SSW 3 4 1005.3 - - - - - - - - -
 
Date/Time
EST
Temp

°C
Wind Pressure Rain
since 9am
mm
Weather Cloud Vis
km
Sea
Height
m
Swell
Dir
 
Speed
knots
Gust
knots
hPa Trend Height
m
Period
s
Dir
25/11:30pm 28.3 SSW 6 9 1005.7 - - - - - - - - -
25/11:00pm 29.3 SSW 7 11 1006.0 - - - - - - - - -
25/10:30pm 29.6 W 4 6 1005.7 - - - - - - - - -
25/10:00pm 29.9 W 2 4 1005.9 - - - - - - - - -
25/09:30pm 30.0 NNW 5 7 1005.6 - - - - - - - - -
25/09:00pm 29.7 N 6 9 1005.2 - - - - - - - - -
25/08:30pm 30.0 N 7 10 1005.0 - - - - - - - - -
25/08:00pm 30.1 NNE 8 12 1004.1 - - - - - - - - -
25/07:30pm 30.1 NNE 9 12 1003.6 - - - - - - - - -
25/07:00pm 30.2 NNE 8 11 1003.9 - - - - - - - - -
25/06:30pm 30.3 NNE 9 13 1003.7 - - - - - - - - -
25/06:00pm 30.1 NE 8 12 1003.1 - - - - - - - - -
25/05:30pm 29.9 NNE 9 14 1002.9 - - - - - - - - -
25/05:00pm 30.0 NNE 11 14 1002.3 - - - - - - - - -
25/04:30pm 30.0 NNE 9 13 1001.9 - - - - - - - - -
25/04:00pm 29.8 NE 8 11 1002.4 - - - - - - - - -
25/03:30pm 29.6 NE 8 11 1002.8 - - - - - - - - -
25/03:00pm 29.8 NE 9 12 1003.1 - - - - - - - - -
25/02:30pm 29.9 NE 10 12 1003.3 - - - - - - - - -
25/02:00pm 30.9 ENE 3 10 1003.6 - - - - - - - - -
25/01:30pm 30.4 ENE 5 10 1003.7 - - - - - - - - -
25/01:00pm 30.6 ENE 7 11 1004.0 - - - - - - - - -
25/12:30pm 31.6 ENE 2 6 1004.4 - - - - - - - - -
25/12:00pm 33.7 WSW 5 11 1004.6 - - - - - - - - -
25/11:30am 33.2 WSW 4 7 1005.2 - - - - - - - - -
25/11:00am 32.7 NW 4 6 1005.5 - - - - - - - - -
25/10:30am 32.1 WSW 5 11 1006.0 - - - - - - - - -
25/10:00am 30.0 NNE 3 5 1006.4 - - - - - - - - -
25/09:30am 29.5 NNE 2 4 1006.7 - - - - - - - - -
25/09:00am 29.1 NE 3 5 1006.8 - - - - - - - - -
25/08:30am 29.0 NNE 3 5 1007.0 - - - - - - - - -
25/08:00am 28.6 WNW 2 3 1007.0 - - - - - - - - -
25/07:30am 28.5 NW 1 2 1007.1 - - - - - - - - -
25/07:00am 27.4 CALM 0 1 1006.8 - - - - - - - - -
25/06:30am 27.1 WNW 2 2 1006.6 - - - - - - - - -
25/06:00am 26.8 WSW 2 3 1006.2 - - - - - - - - -
25/05:30am 27.2 NNW 3 4 1005.5 - - - - - - - - -
25/05:00am 27.2 W 1 2 1005.5 - - - - - - - - -
25/04:30am 27.6 N 2 3 1005.0 - - - - - - - - -
25/04:00am 27.4 NNW 1 2 1005.0 - - - - - - - - -
25/03:30am 27.4 CALM 0 2 1005.1 - - - - - - - - -
25/03:00am 27.4 N 1 3 1004.9 - - - - - - - - -
25/02:30am 27.1 SW 1 1 1005.0 - - - - - - - - -
25/02:00am 27.4 CALM 0 2 1005.1 - - - - - - - - -
25/01:30am 26.9 S 2 3 1005.4 - - - - - - - - -
25/01:00am 27.0 S 2 3 1005.6 - - - - - - - - -
25/12:30am 27.1 S 2 3 1005.9 - - - - - - - - -
25/12:00am 27.6 WSW 1 2 1005.9 - - - - - - - - -
 
Date/Time
EST
Temp

°C
Wind Pressure Rain
since 9am
mm
Weather Cloud Vis
km
Sea
Height
m
Swell
Dir
 
Speed
knots
Gust
knots
hPa Trend Height
m
Period
s
Dir
24/11:30pm 28.0 N 2 3 1006.1 - - - - - - - - -
24/11:00pm 28.0 NW 2 3 1006.3 - - - - - - - - -
24/10:30pm 28.1 N 3 4 1006.0 - - - - - - - - -
24/10:00pm 27.9 N 2 3 1006.2 - - - - - - - - -
24/09:30pm 27.5 W 1 2 1006.1 - - - - - - - - -
24/09:00pm 27.9 NW 3 4 1005.9 - - - - - - - - -
24/08:30pm 27.8 N 5 7 1005.9 - - - - - - - - -

Other Formats:

Comma delimited format used in spreadsheet applications
http://www.bom.gov.au/fwo/IDQ60701/IDQ60701.95298.axf

JavaScript Object Notation format (JSON) in row-major order
http://www.bom.gov.au/fwo/IDQ60701/IDQ60701.95298.json